sensor_id;sensor_type;location;lat;lon;timestamp;pressure;altitude;pressure_sealevel;temperature;humidity
19789;BME280;10054;59.332;18.244;2023-07-08T00:02:16;101239.25;;;15.61;100.00
19789;BME280;10054;59.332;18.244;2023-07-08T00:04:45;101237.55;;;15.60;100.00
19789;BME280;10054;59.332;18.244;2023-07-08T00:07:15;101236.48;;;15.57;100.00
19789;BME280;10054;59.332;18.244;2023-07-08T00:09:46;101234.50;;;15.54;100.00
19789;BME280;10054;59.332;18.244;2023-07-08T00:12:14;101232.91;;;15.51;100.00
19789;BME280;10054;59.332;18.244;2023-07-08T00:14:43;101233.50;;;15.49;100.00
19789;BME280;10054;59.332;18.244;2023-07-08T00:17:15;101238.45;;;15.48;100.00
19789;BME280;10054;59.332;18.244;2023-07-08T00:19:44;101242.08;;;15.47;100.00
19789;BME280;10054;59.332;18.244;2023-07-08T00:22:13;101242.44;;;15.48;100.00
19789;BME280;10054;59.332;18.244;2023-07-08T00:24:43;101240.74;;;15.47;100.00
19789;BME280;10054;59.332;18.244;2023-07-08T00:27:13;101242.67;;;15.45;100.00
19789;BME280;10054;59.332;18.244;2023-07-08T00:29:41;101244.36;;;15.46;100.00
19789;BME280;10054;59.332;18.244;2023-07-08T00:32:16;101247.02;;;15.46;100.00
19789;BME280;10054;59.332;18.244;2023-07-08T00:34:44;101249.20;;;15.47;100.00
19789;BME280;10054;59.332;18.244;2023-07-08T00:37:13;101247.98;;;15.45;100.00
19789;BME280;10054;59.332;18.244;2023-07-08T00:39:42;101249.31;;;15.45;100.00
19789;BME280;10054;59.332;18.244;2023-07-08T00:42:17;101242.78;;;15.43;100.00
19789;BME280;10054;59.332;18.244;2023-07-08T00:44:46;101251.72;;;15.42;100.00
19789;BME280;10054;59.332;18.244;2023-07-08T00:47:16;101249.06;;;15.42;100.00
19789;BME280;10054;59.332;18.244;2023-07-08T00:49:57;101248.20;;;15.42;100.00
19789;BME280;10054;59.332;18.244;2023-07-08T00:52:29;101248.69;;;15.41;100.00
19789;BME280;10054;59.332;18.244;2023-07-08T00:55:00;101246.25;;;15.38;100.00
19789;BME280;10054;59.332;18.244;2023-07-08T00:57:33;101244.55;;;15.37;100.00
19789;BME280;10054;59.332;18.244;2023-07-08T01:00:05;101249.50;;;15.36;100.00
19789;BME280;10054;59.332;18.244;2023-07-08T01:02:43;101238.61;;;15.34;100.00
19789;BME280;10054;59.332;18.244;2023-07-08T01:05:17;101238.94;;;15.29;100.00
19789;BME280;10054;59.332;18.244;2023-07-08T01:07:43;101242.30;;;15.26;100.00
19789;BME280;10054;59.332;18.244;2023-07-08T01:10:18;101243.00;;;15.22;100.00
19789;BME280;10054;59.332;18.244;2023-07-08T01:12:49;101244.55;;;15.19;100.00
19789;BME280;10054;59.332;18.244;2023-07-08T01:15:20;101244.77;;;15.16;100.00
19789;BME280;10054;59.332;18.244;2023-07-08T01:17:50;101243.18;;;15.13;100.00
19789;BME280;10054;59.332;18.244;2023-07-08T01:20:22;101240.74;;;15.10;100.00
19789;BME280;10054;59.332;18.244;2023-07-08T01:22:50;101246.02;;;15.05;100.00
19789;BME280;10054;59.332;18.244;2023-07-08T01:25:19;101250.70;;;15.01;100.00
19789;BME280;10054;59.332;18.244;2023-07-08T01:27:52;101246.82;;;15.00;100.00
19789;BME280;10054;59.332;18.244;2023-07-08T01:30:21;101245.97;;;14.99;100.00
19789;BME280;10054;59.332;18.244;2023-07-08T01:32:54;101240.28;;;14.98;100.00
19789;BME280;10054;59.332;18.244;2023-07-08T01:35:21;101235.93;;;14.97;100.00
19789;BME280;10054;59.332;18.244;2023-07-08T01:37:59;101240.50;;;14.95;100.00
19789;BME280;10054;59.332;18.244;2023-07-08T01:40:37;101237.47;;;14.94;100.00
19789;BME280;10054;59.332;18.244;2023-07-08T01:43:06;101247.73;;;14.93;100.00
19789;BME280;10054;59.332;18.244;2023-07-08T01:45:38;101243.37;;;14.92;100.00
19789;BME280;10054;59.332;18.244;2023-07-08T01:48:11;101243.00;;;14.91;100.00
19789;BME280;10054;59.332;18.244;2023-07-08T01:50:42;101246.98;;;14.91;100.00
19789;BME280;10054;59.332;18.244;2023-07-08T01:53:18;101246.62;;;14.90;100.00
19789;BME280;10054;59.332;18.244;2023-07-08T01:55:44;101246.25;;;14.89;100.00
19789;BME280;10054;59.332;18.244;2023-07-08T01:58:13;101250.82;;;14.87;100.00
19789;BME280;10054;59.332;18.244;2023-07-08T02:00:42;101256.13;;;14.87;100.00
19789;BME280;10054;59.332;18.244;2023-07-08T02:03:11;101253.11;;;14.86;100.00
19789;BME280;10054;59.332;18.244;2023-07-08T02:05:40;101254.44;;;14.86;100.00
19789;BME280;10054;59.332;18.244;2023-07-08T02:08:09;101257.56;;;14.86;100.00
19789;BME280;10054;59.332;18.244;2023-07-08T02:10:40;101256.13;;;14.87;100.00
19789;BME280;10054;59.332;18.244;2023-07-08T02:13:09;101258.79;;;14.87;100.00
19789;BME280;10054;59.332;18.244;2023-07-08T02:15:38;101264.95;;;14.88;100.00
19789;BME280;10054;59.332;18.244;2023-07-08T02:18:07;101264.47;;;14.88;100.00
19789;BME280;10054;59.332;18.244;2023-07-08T02:20:36;101261.45;;;14.87;100.00
19789;BME280;10054;59.332;18.244;2023-07-08T02:23:05;101265.80;;;14.88;100.00
19789;BME280;10054;59.332;18.244;2023-07-08T02:25:35;101266.76;;;14.87;100.00
19789;BME280;10054;59.332;18.244;2023-07-08T02:28:04;101268.56;;;14.87;100.00
19789;BME280;10054;59.332;18.244;2023-07-08T02:30:34;101267.72;;;14.86;100.00
19789;BME280;10054;59.332;18.244;2023-07-08T02:33:04;101270.27;;;14.88;100.00
19789;BME280;10054;59.332;18.244;2023-07-08T02:35:35;101269.41;;;14.87;100.00
19789;BME280;10054;59.332;18.244;2023-07-08T02:38:03;101273.19;;;14.90;100.00
19789;BME280;10054;59.332;18.244;2023-07-08T02:40:32;101276.58;;;14.92;100.00
19789;BME280;10054;59.332;18.244;2023-07-08T02:43:01;101284.98;;;14.99;100.00
19789;BME280;10054;59.332;18.244;2023-07-08T02:45:32;101283.37;;;15.09;100.00
19789;BME280;10054;59.332;18.244;2023-07-08T02:48:01;101286.23;;;15.19;100.00
19789;BME280;10054;59.332;18.244;2023-07-08T02:50:31;101291.23;;;15.41;100.00
19789;BME280;10054;59.332;18.244;2023-07-08T02:53:00;101279.64;;;15.85;100.00
19789;BME280;10054;59.332;18.244;2023-07-08T02:55:29;101280.91;;;16.27;100.00
19789;BME280;10054;59.332;18.244;2023-07-08T02:57:58;101282.64;;;16.56;100.00
19789;BME280;10054;59.332;18.244;2023-07-08T03:00:27;101283.82;;;17.03;100.00
19789;BME280;10054;59.332;18.244;2023-07-08T03:02:57;101278.65;;;17.56;100.00
19789;BME280;10054;59.332;18.244;2023-07-08T03:05:27;101279.08;;;18.10;100.00
19789;BME280;10054;59.332;18.244;2023-07-08T03:07:56;101280.73;;;18.58;100.00
19789;BME280;10054;59.332;18.244;2023-07-08T03:10:25;101284.77;;;18.94;100.00
19789;BME280;10054;59.332;18.244;2023-07-08T03:12:54;101283.24;;;19.17;100.00
19789;BME280;10054;59.332;18.244;2023-07-08T03:15:23;101278.64;;;19.28;100.00
19789;BME280;10054;59.332;18.244;2023-07-08T03:17:52;101285.19;;;19.30;100.00
19789;BME280;10054;59.332;18.244;2023-07-08T03:20:23;101285.33;;;19.28;100.00
19789;BME280;10054;59.332;18.244;2023-07-08T03:22:52;101291.98;;;19.19;100.00
19789;BME280;10054;59.332;18.244;2023-07-08T03:25:21;101292.66;;;19.11;100.00
19789;BME280;10054;59.332;18.244;2023-07-08T03:27:50;101284.05;;;19.08;100.00
19789;BME280;10054;59.332;18.244;2023-07-08T03:30:20;101285.30;;;19.03;100.00
19789;BME280;10054;59.332;18.244;2023-07-08T03:32:50;101282.77;;;19.02;100.00
19789;BME280;10054;59.332;18.244;2023-07-08T03:35:19;101286.02;;;19.06;100.00
19789;BME280;10054;59.332;18.244;2023-07-08T03:37:49;101283.16;;;19.13;100.00
19789;BME280;10054;59.332;18.244;2023-07-08T03:40:18;101282.97;;;19.20;100.00
19789;BME280;10054;59.332;18.244;2023-07-08T03:42:47;101284.84;;;19.29;100.00
19789;BME280;10054;59.332;18.244;2023-07-08T03:45:17;101289.70;;;19.39;100.00
19789;BME280;10054;59.332;18.244;2023-07-08T03:47:46;101287.32;;;19.46;100.00
19789;BME280;10054;59.332;18.244;2023-07-08T03:50:25;101286.31;;;19.52;100.00
19789;BME280;10054;59.332;18.244;2023-07-08T03:52:49;101285.05;;;19.56;100.00
19789;BME280;10054;59.332;18.244;2023-07-08T03:55:19;101285.35;;;19.63;100.00
19789;BME280;10054;59.332;18.244;2023-07-08T03:57:49;101284.45;;;19.68;100.00
19789;BME280;10054;59.332;18.244;2023-07-08T04:00:18;101284.72;;;19.65;100.00
19789;BME280;10054;59.332;18.244;2023-07-08T04:02:47;101292.40;;;19.64;100.00
19789;BME280;10054;59.332;18.244;2023-07-08T04:05:20;101294.73;;;19.73;100.00
19789;BME280;10054;59.332;18.244;2023-07-08T04:07:49;101301.06;;;19.62;99.37
19789;BME280;10054;59.332;18.244;2023-07-08T04:10:18;101303.54;;;19.69;100.00
19789;BME280;10054;59.332;18.244;2023-07-08T04:12:47;101306.91;;;19.61;98.67
19789;BME280;10054;59.332;18.244;2023-07-08T04:15:16;101309.06;;;19.52;100.00
19789;BME280;10054;59.332;18.244;2023-07-08T04:17:46;101314.30;;;19.63;100.00
19789;BME280;10054;59.332;18.244;2023-07-08T04:20:18;101313.67;;;19.65;99.65
19789;BME280;10054;59.332;18.244;2023-07-08T04:22:47;101312.02;;;19.84;100.00
19789;BME280;10054;59.332;18.244;2023-07-08T04:25:18;101318.85;;;20.11;99.02
19789;BME280;10054;59.332;18.244;2023-07-08T04:27:47;101307.71;;;20.35;97.19
19789;BME280;10054;59.332;18.244;2023-07-08T04:30:22;101315.83;;;20.58;95.53
19789;BME280;10054;59.332;18.244;2023-07-08T04:32:47;101311.45;;;20.81;94.92
19789;BME280;10054;59.332;18.244;2023-07-08T04:35:17;101313.96;;;20.92;93.80
19789;BME280;10054;59.332;18.244;2023-07-08T04:37:46;101314.74;;;21.12;92.96
19789;BME280;10054;59.332;18.244;2023-07-08T04:40:20;101315.34;;;21.29;91.61
19789;BME280;10054;59.332;18.244;2023-07-08T04:42:49;101320.36;;;21.42;90.30
19789;BME280;10054;59.332;18.244;2023-07-08T04:45:19;101322.50;;;21.52;89.66
19789;BME280;10054;59.332;18.244;2023-07-08T04:47:49;101315.75;;;21.65;88.82
19789;BME280;10054;59.332;18.244;2023-07-08T04:50:19;101316.69;;;21.74;88.12
19789;BME280;10054;59.332;18.244;2023-07-08T04:52:48;101319.81;;;21.83;86.78
19789;BME280;10054;59.332;18.244;2023-07-08T04:55:18;101315.41;;;21.96;85.52
19789;BME280;10054;59.332;18.244;2023-07-08T04:57:47;101317.25;;;21.95;84.97
19789;BME280;10054;59.332;18.244;2023-07-08T05:00:17;101309.00;;;21.93;85.02
19789;BME280;10054;59.332;18.244;2023-07-08T05:02:47;101313.56;;;22.10;84.52
19789;BME280;10054;59.332;18.244;2023-07-08T05:05:15;101313.03;;;22.28;83.16
19789;BME280;10054;59.332;18.244;2023-07-08T05:07:44;101310.09;;;22.40;82.25
19789;BME280;10054;59.332;18.244;2023-07-08T05:10:13;101310.20;;;22.52;81.81
19789;BME280;10054;59.332;18.244;2023-07-08T05:12:43;101308.57;;;22.59;81.79
19789;BME280;10054;59.332;18.244;2023-07-08T05:15:12;101313.20;;;22.71;81.31
19789;BME280;10054;59.332;18.244;2023-07-08T05:17:41;101315.81;;;22.80;79.79
19789;BME280;10054;59.332;18.244;2023-07-08T05:20:13;101310.11;;;22.83;79.68
19789;BME280;10054;59.332;18.244;2023-07-08T05:22:42;101315.84;;;22.84;79.90
19789;BME280;10054;59.332;18.244;2023-07-08T05:25:12;101313.84;;;22.86;80.40
19789;BME280;10054;59.332;18.244;2023-07-08T05:27:41;101314.55;;;22.92;79.52
19789;BME280;10054;59.332;18.244;2023-07-08T05:30:13;101318.23;;;22.91;79.51
19789;BME280;10054;59.332;18.244;2023-07-08T05:32:41;101316.89;;;22.91;79.63
19789;BME280;10054;59.332;18.244;2023-07-08T05:35:10;101317.77;;;22.96;79.22
19789;BME280;10054;59.332;18.244;2023-07-08T05:37:39;101316.77;;;23.05;78.43
19789;BME280;10054;59.332;18.244;2023-07-08T05:40:09;101318.33;;;23.12;77.37
19789;BME280;10054;59.332;18.244;2023-07-08T05:42:37;101322.02;;;23.11;77.18
19789;BME280;10054;59.332;18.244;2023-07-08T05:45:07;101318.33;;;23.12;77.01
19789;BME280;10054;59.332;18.244;2023-07-08T05:47:38;101320.33;;;23.10;77.07
19789;BME280;10054;59.332;18.244;2023-07-08T05:50:07;101320.49;;;23.08;76.55
19789;BME280;10054;59.332;18.244;2023-07-08T05:52:38;101321.36;;;23.13;76.00
19789;BME280;10054;59.332;18.244;2023-07-08T05:55:07;101322.89;;;23.15;75.85
19789;BME280;10054;59.332;18.244;2023-07-08T05:57:36;101320.39;;;23.22;76.05
19789;BME280;10054;59.332;18.244;2023-07-08T06:00:06;101319.93;;;23.31;75.73
19789;BME280;10054;59.332;18.244;2023-07-08T06:02:37;101328.73;;;23.41;75.01
19789;BME280;10054;59.332;18.244;2023-07-08T06:05:06;101327.25;;;23.50;74.18
19789;BME280;10054;59.332;18.244;2023-07-08T06:07:35;101323.89;;;23.52;73.62
19789;BME280;10054;59.332;18.244;2023-07-08T06:10:05;101327.30;;;23.54;73.42
19789;BME280;10054;59.332;18.244;2023-07-08T06:12:34;101328.65;;;23.54;73.82
19789;BME280;10054;59.332;18.244;2023-07-08T06:15:03;101328.31;;;23.53;73.73
19789;BME280;10054;59.332;18.244;2023-07-08T06:17:32;101328.66;;;23.58;72.10
19789;BME280;10054;59.332;18.244;2023-07-08T06:20:01;101332.73;;;23.67;73.07
19789;BME280;10054;59.332;18.244;2023-07-08T06:22:29;101334.77;;;23.73;71.85
19789;BME280;10054;59.332;18.244;2023-07-08T06:24:58;101337.97;;;23.72;71.75
19789;BME280;10054;59.332;18.244;2023-07-08T06:27:27;101336.61;;;23.80;71.55
19789;BME280;10054;59.332;18.244;2023-07-08T06:29:56;101344.86;;;23.79;72.04
19789;BME280;10054;59.332;18.244;2023-07-08T06:32:25;101342.34;;;23.81;70.90
19789;BME280;10054;59.332;18.244;2023-07-08T06:34:54;101348.25;;;23.85;71.35
19789;BME280;10054;59.332;18.244;2023-07-08T06:37:23;101345.22;;;23.88;71.15
19789;BME280;10054;59.332;18.244;2023-07-08T06:39:53;101341.37;;;23.95;71.25
19789;BME280;10054;59.332;18.244;2023-07-08T06:42:21;101344.74;;;23.97;70.59
19789;BME280;10054;59.332;18.244;2023-07-08T06:44:52;101340.17;;;23.89;70.42
19789;BME280;10054;59.332;18.244;2023-07-08T06:47:21;101346.73;;;23.40;70.19
19789;BME280;10054;59.332;18.244;2023-07-08T06:49:50;101346.35;;;23.31;71.46
19789;BME280;10054;59.332;18.244;2023-07-08T06:52:19;101348.72;;;22.56;71.75
19789;BME280;10054;59.332;18.244;2023-07-08T06:54:48;101344.52;;;22.14;76.92
19789;BME280;10054;59.332;18.244;2023-07-08T06:57:17;101345.24;;;22.20;77.72
19789;BME280;10054;59.332;18.244;2023-07-08T06:59:45;101348.47;;;22.46;76.75
19789;BME280;10054;59.332;18.244;2023-07-08T07:02:14;101348.34;;;22.51;77.09
19789;BME280;10054;59.332;18.244;2023-07-08T07:04:44;101346.88;;;22.57;74.59
19789;BME280;10054;59.332;18.244;2023-07-08T07:07:14;101350.27;;;22.41;76.21
19789;BME280;10054;59.332;18.244;2023-07-08T07:09:42;101344.16;;;22.53;77.07
19789;BME280;10054;59.332;18.244;2023-07-08T07:12:11;101349.78;;;22.81;77.13
19789;BME280;10054;59.332;18.244;2023-07-08T07:14:40;101350.69;;;22.90;73.05
19789;BME280;10054;59.332;18.244;2023-07-08T07:17:09;101343.34;;;22.78;74.69
19789;BME280;10054;59.332;18.244;2023-07-08T07:19:38;101353.06;;;22.93;75.42
19789;BME280;10054;59.332;18.244;2023-07-08T07:22:07;101353.95;;;23.02;72.61
19789;BME280;10054;59.332;18.244;2023-07-08T07:24:36;101360.50;;;22.99;74.30
19789;BME280;10054;59.332;18.244;2023-07-08T07:27:05;101352.56;;;22.93;73.13
19789;BME280;10054;59.332;18.244;2023-07-08T07:29:45;101358.05;;;22.84;74.06
19789;BME280;10054;59.332;18.244;2023-07-08T07:32:15;101359.73;;;22.67;73.93
19789;BME280;10054;59.332;18.244;2023-07-08T07:34:46;101360.91;;;22.47;73.99
19789;BME280;10054;59.332;18.244;2023-07-08T07:37:16;101359.76;;;22.27;76.06
19789;BME280;10054;59.332;18.244;2023-07-08T07:39:45;101356.64;;;22.18;77.20
19789;BME280;10054;59.332;18.244;2023-07-08T07:42:15;101364.39;;;22.04;77.54
19789;BME280;10054;59.332;18.244;2023-07-08T07:44:44;101362.98;;;21.86;77.35
19789;BME280;10054;59.332;18.244;2023-07-08T07:47:14;101363.48;;;21.85;79.56
19789;BME280;10054;59.332;18.244;2023-07-08T07:49:43;101370.83;;;21.97;78.07
19789;BME280;10054;59.332;18.244;2023-07-08T07:52:12;101365.28;;;21.81;76.92
19789;BME280;10054;59.332;18.244;2023-07-08T07:54:40;101374.91;;;22.01;79.50
19789;BME280;10054;59.332;18.244;2023-07-08T07:57:09;101366.48;;;22.32;76.80
19789;BME280;10054;59.332;18.244;2023-07-08T07:59:38;101369.39;;;22.56;74.11
19789;BME280;10054;59.332;18.244;2023-07-08T08:02:08;101371.24;;;22.77;75.36
19789;BME280;10054;59.332;18.244;2023-07-08T08:04:38;101368.91;;;23.04;72.72
19789;BME280;10054;59.332;18.244;2023-07-08T08:07:07;101375.51;;;23.10;69.83
19789;BME280;10054;59.332;18.244;2023-07-08T08:09:37;101369.20;;;23.23;71.80
19789;BME280;10054;59.332;18.244;2023-07-08T08:12:10;101367.16;;;23.21;70.55
19789;BME280;10054;59.332;18.244;2023-07-08T08:14:39;101370.33;;;23.46;70.89
19789;BME280;10054;59.332;18.244;2023-07-08T08:17:08;101368.41;;;23.61;68.22
19789;BME280;10054;59.332;18.244;2023-07-08T08:19:37;101368.82;;;23.48;68.84
19789;BME280;10054;59.332;18.244;2023-07-08T08:22:06;101370.31;;;23.42;69.09
19789;BME280;10054;59.332;18.244;2023-07-08T08:24:36;101368.55;;;23.29;70.03
19789;BME280;10054;59.332;18.244;2023-07-08T08:27:05;101368.19;;;23.24;70.35
19789;BME280;10054;59.332;18.244;2023-07-08T08:29:34;101368.58;;;23.33;70.45
19789;BME280;10054;59.332;18.244;2023-07-08T08:32:03;101370.79;;;23.38;66.69
19789;BME280;10054;59.332;18.244;2023-07-08T08:34:32;101364.92;;;23.42;67.02
19789;BME280;10054;59.332;18.244;2023-07-08T08:37:00;101369.75;;;23.61;68.19
19789;BME280;10054;59.332;18.244;2023-07-08T08:39:29;101374.52;;;23.75;66.35
19789;BME280;10054;59.332;18.244;2023-07-08T08:41:58;101372.25;;;23.54;68.12
19789;BME280;10054;59.332;18.244;2023-07-08T08:44:31;101376.19;;;23.72;64.79
19789;BME280;10054;59.332;18.244;2023-07-08T08:47:20;101374.01;;;23.83;65.88
19789;BME280;10054;59.332;18.244;2023-07-08T08:49:50;101374.48;;;23.67;66.05
19789;BME280;10054;59.332;18.244;2023-07-08T08:52:18;101371.97;;;23.77;65.57
19789;BME280;10054;59.332;18.244;2023-07-08T08:54:47;101381.58;;;23.80;66.16
19789;BME280;10054;59.332;18.244;2023-07-08T08:57:40;101377.95;;;24.05;65.55
19789;BME280;10054;59.332;18.244;2023-07-08T09:00:09;101373.44;;;24.22;63.00
19789;BME280;10054;59.332;18.244;2023-07-08T09:03:00;101376.63;;;24.21;64.35
19789;BME280;10054;59.332;18.244;2023-07-08T09:05:29;101375.51;;;24.40;63.28
19789;BME280;10054;59.332;18.244;2023-07-08T09:08:14;101372.81;;;24.40;64.60
19789;BME280;10054;59.332;18.244;2023-07-08T09:10:48;101373.30;;;24.60;64.62
19789;BME280;10054;59.332;18.244;2023-07-08T09:13:22;101372.45;;;24.64;62.21
19789;BME280;10054;59.332;18.244;2023-07-08T09:16:17;101376.66;;;24.78;62.14
19789;BME280;10054;59.332;18.244;2023-07-08T09:19:10;101378.69;;;24.84;62.49
19789;BME280;10054;59.332;18.244;2023-07-08T09:25:02;101378.36;;;24.31;60.58
19789;BME280;10054;59.332;18.244;2023-07-08T09:26:50;101383.03;;;24.20;63.29
19789;BME280;10054;59.332;18.244;2023-07-08T09:29:22;101387.89;;;24.05;63.89
19789;BME280;10054;59.332;18.244;2023-07-08T09:31:51;101390.83;;;23.77;62.89
19789;BME280;10054;59.332;18.244;2023-07-08T09:34:22;101390.78;;;23.57;63.98
19789;BME280;10054;59.332;18.244;2023-07-08T09:36:53;101387.47;;;23.41;64.58
19789;BME280;10054;59.332;18.244;2023-07-08T09:39:21;101396.51;;;23.32;64.39
19789;BME280;10054;59.332;18.244;2023-07-08T09:41:50;101395.09;;;23.20;64.86
19789;BME280;10054;59.332;18.244;2023-07-08T09:44:27;101394.24;;;23.49;66.70
19789;BME280;10054;59.332;18.244;2023-07-08T09:46:58;101395.23;;;23.74;65.42
19789;BME280;10054;59.332;18.244;2023-07-08T09:49:36;101392.72;;;23.77;63.45
19789;BME280;10054;59.332;18.244;2023-07-08T09:52:05;101398.25;;;23.79;61.76
19789;BME280;10054;59.332;18.244;2023-07-08T09:54:34;101392.22;;;23.89;62.81
19789;BME280;10054;59.332;18.244;2023-07-08T09:57:05;101397.95;;;23.90;61.28
19789;BME280;10054;59.332;18.244;2023-07-08T09:59:42;101397.08;;;23.82;61.71
19789;BME280;10054;59.332;18.244;2023-07-08T10:02:31;101399.25;;;23.40;60.28
19789;BME280;10054;59.332;18.244;2023-07-08T10:05:13;101395.03;;;23.38;61.87
19789;BME280;10054;59.332;18.244;2023-07-08T10:07:37;101399.68;;;23.27;61.53
19789;BME280;10054;59.332;18.244;2023-07-08T10:10:12;101401.23;;;23.08;61.57
19789;BME280;10054;59.332;18.244;2023-07-08T10:12:48;101404.43;;;23.08;62.28
19789;BME280;10054;59.332;18.244;2023-07-08T10:15:30;101395.80;;;23.26;61.78
19789;BME280;10054;59.332;18.244;2023-07-08T10:17:58;101395.20;;;23.40;61.37
19789;BME280;10054;59.332;18.244;2023-07-08T10:20:34;101404.66;;;23.44;61.69
19789;BME280;10054;59.332;18.244;2023-07-08T10:23:22;101407.48;;;23.39;62.31
19789;BME280;10054;59.332;18.244;2023-07-08T10:26:05;101401.41;;;23.63;61.96
19789;BME280;10054;59.332;18.244;2023-07-08T10:28:37;101403.66;;;23.83;60.24
19789;BME280;10054;59.332;18.244;2023-07-08T10:31:27;101401.70;;;24.06;60.16
19789;BME280;10054;59.332;18.244;2023-07-08T10:36:49;101397.45;;;23.91;59.25
19789;BME280;10054;59.332;18.244;2023-07-08T10:40:25;101392.06;;;23.91;57.71
19789;BME280;10054;59.332;18.244;2023-07-08T10:42:27;101405.22;;;23.98;57.23
19789;BME280;10054;59.332;18.244;2023-07-08T10:56:14;101407.17;;;23.80;57.47
19789;BME280;10054;59.332;18.244;2023-07-08T10:59:03;101403.98;;;23.72;57.39
19789;BME280;10054;59.332;18.244;2023-07-08T11:01:45;101411.23;;;23.76;57.60
19789;BME280;10054;59.332;18.244;2023-07-08T11:04:26;101402.02;;;23.99;56.69
19789;BME280;10054;59.332;18.244;2023-07-08T11:07:10;101398.98;;;23.98;57.03
19789;BME280;10054;59.332;18.244;2023-07-08T11:09:51;101402.20;;;24.05;56.36
19789;BME280;10054;59.332;18.244;2023-07-08T11:17:54;101398.92;;;24.28;54.04
19789;BME280;10054;59.332;18.244;2023-07-08T11:20:34;101407.96;;;24.14;53.88
19789;BME280;10054;59.332;18.244;2023-07-08T11:23:22;101410.48;;;24.12;54.48
19789;BME280;10054;59.332;18.244;2023-07-08T11:25:52;101398.83;;;24.03;54.88
19789;BME280;10054;59.332;18.244;2023-07-08T11:28:22;101408.48;;;24.22;55.24
19789;BME280;10054;59.332;18.244;2023-07-08T11:30:52;101407.35;;;24.29;54.99
19789;BME280;10054;59.332;18.244;2023-07-08T11:33:24;101408.19;;;24.29;54.65
19789;BME280;10054;59.332;18.244;2023-07-08T11:35:54;101397.25;;;24.35;54.59
19789;BME280;10054;59.332;18.244;2023-07-08T11:38:25;101400.97;;;24.46;53.79
19789;BME280;10054;59.332;18.244;2023-07-08T11:40:57;101404.52;;;24.50;54.13
19789;BME280;10054;59.332;18.244;2023-07-08T11:43:28;101396.56;;;24.53;54.29
19789;BME280;10054;59.332;18.244;2023-07-08T11:46:03;101401.96;;;24.61;55.41
19789;BME280;10054;59.332;18.244;2023-07-08T11:48:30;101399.94;;;24.63;54.57
19789;BME280;10054;59.332;18.244;2023-07-08T11:51:04;101405.00;;;24.62;54.54
19789;BME280;10054;59.332;18.244;2023-07-08T11:53:37;101399.77;;;24.56;55.36
19789;BME280;10054;59.332;18.244;2023-07-08T11:58:53;101400.47;;;24.46;55.35
19789;BME280;10054;59.332;18.244;2023-07-08T12:01:40;101406.34;;;24.26;55.00
19789;BME280;10054;59.332;18.244;2023-07-08T12:06:43;101406.17;;;23.81;54.82
19789;BME280;10054;59.332;18.244;2023-07-08T12:09:29;101402.45;;;23.78;55.11
19789;BME280;10054;59.332;18.244;2023-07-08T12:12:01;101404.87;;;23.93;55.77
19789;BME280;10054;59.332;18.244;2023-07-08T12:14:31;101404.77;;;24.15;54.70
19789;BME280;10054;59.332;18.244;2023-07-08T12:17:00;101396.23;;;24.32;54.18
19789;BME280;10054;59.332;18.244;2023-07-08T12:19:30;101397.27;;;24.47;53.70
19789;BME280;10054;59.332;18.244;2023-07-08T12:21:59;101398.59;;;24.63;53.10
19789;BME280;10054;59.332;18.244;2023-07-08T12:24:28;101400.61;;;24.61;53.90
19789;BME280;10054;59.332;18.244;2023-07-08T12:26:57;101397.58;;;24.68;52.47
19789;BME280;10054;59.332;18.244;2023-07-08T12:29:26;101392.52;;;24.73;51.99
19789;BME280;10054;59.332;18.244;2023-07-08T12:31:56;101389.14;;;24.87;52.48
19789;BME280;10054;59.332;18.244;2023-07-08T12:34:26;101388.66;;;24.96;51.15
19789;BME280;10054;59.332;18.244;2023-07-08T12:36:55;101382.73;;;24.88;49.40
19789;BME280;10054;59.332;18.244;2023-07-08T12:39:24;101379.20;;;25.00;50.58
19789;BME280;10054;59.332;18.244;2023-07-08T12:41:53;101380.72;;;25.03;50.29
19789;BME280;10054;59.332;18.244;2023-07-08T12:44:25;101380.72;;;24.99;50.50
19789;BME280;10054;59.332;18.244;2023-07-08T12:46:56;101377.85;;;25.00;50.58
19789;BME280;10054;59.332;18.244;2023-07-08T12:49:26;101385.77;;;25.10;50.79
19789;BME280;10054;59.332;18.244;2023-07-08T12:51:56;101385.42;;;25.13;49.46
19789;BME280;10054;59.332;18.244;2023-07-08T12:54:27;101384.40;;;25.18;50.95
19789;BME280;10054;59.332;18.244;2023-07-08T12:56:55;101377.16;;;25.10;49.47
19789;BME280;10054;59.332;18.244;2023-07-08T12:59:25;101376.80;;;25.17;50.66
19789;BME280;10054;59.332;18.244;2023-07-08T13:01:55;101379.60;;;25.32;50.43
19789;BME280;10054;59.332;18.244;2023-07-08T13:04:24;101376.73;;;25.34;50.46
19789;BME280;10054;59.332;18.244;2023-07-08T13:06:53;101365.37;;;25.46;50.85
19789;BME280;10054;59.332;18.244;2023-07-08T13:09:29;101370.25;;;25.51;50.44
19789;BME280;10054;59.332;18.244;2023-07-08T13:11:55;101370.08;;;25.52;50.45
19789;BME280;10054;59.332;18.244;2023-07-08T13:14:25;101367.19;;;25.58;51.03
19789;BME280;10054;59.332;18.244;2023-07-08T13:16:54;101366.32;;;25.70;51.22
19789;BME280;10054;59.332;18.244;2023-07-08T13:19:23;101365.08;;;25.80;50.42
19789;BME280;10054;59.332;18.244;2023-07-08T13:21:52;101363.49;;;25.94;50.79
19789;BME280;10054;59.332;18.244;2023-07-08T13:24:22;101358.52;;;26.02;50.40